createdAt,value
2019-02-24T00:00:41.468Z,14.10
2019-02-24T00:03:10.077Z,13.57
2019-02-24T00:05:38.740Z,12.93
2019-02-24T00:08:07.386Z,13.38
2019-02-24T00:10:36.104Z,13.13
2019-02-24T00:13:04.734Z,14.13
2019-02-24T00:15:33.252Z,12.43
2019-02-24T00:18:01.722Z,12.45
2019-02-24T00:20:30.202Z,12.55
2019-02-24T00:22:58.686Z,12.03
2019-02-24T00:25:27.218Z,12.47
2019-02-24T00:27:55.700Z,12.95
2019-02-24T00:30:24.159Z,12.85
2019-02-24T00:32:52.770Z,12.47
2019-02-24T00:35:21.510Z,13.32
2019-02-24T00:37:50.006Z,13.65
2019-02-24T00:40:18.497Z,12.30
2019-02-24T00:42:46.957Z,13.20
2019-02-24T00:45:15.486Z,12.00
2019-02-24T00:47:43.980Z,12.23
2019-02-24T00:50:12.567Z,12.37
2019-02-24T00:52:41.307Z,12.70
2019-02-24T00:55:10.020Z,12.68
2019-02-24T00:57:38.622Z,12.03
2019-02-24T01:00:10.464Z,11.80
2019-02-24T01:02:39.017Z,12.15
2019-02-24T01:05:08.861Z,12.67
2019-02-24T01:07:37.336Z,12.37
2019-02-24T01:10:08.657Z,13.72
2019-02-24T01:12:37.142Z,12.78
2019-02-24T01:15:08.709Z,13.60
2019-02-24T01:17:37.173Z,13.03
2019-02-24T01:20:08.393Z,13.22
2019-02-24T01:22:37.132Z,12.98
2019-02-24T01:25:06.026Z,13.60
2019-02-24T01:27:34.475Z,15.23
2019-02-24T01:30:03.130Z,14.70
2019-02-24T01:32:31.587Z,15.53
2019-02-24T01:35:00.092Z,15.07
2019-02-24T01:37:28.941Z,16.27
2019-02-24T01:39:57.393Z,14.97
2019-02-24T01:42:25.980Z,14.93
2019-02-24T01:44:54.526Z,15.30
2019-02-24T01:47:23.373Z,14.05
2019-02-24T01:49:52.059Z,14.87
2019-02-24T01:52:20.892Z,14.68
2019-02-24T01:54:49.428Z,14.55
2019-02-24T01:57:17.913Z,15.53
2019-02-24T01:59:46.618Z,14.98
2019-02-24T02:02:15.148Z,15.65
2019-02-24T02:04:43.654Z,15.00
2019-02-24T02:07:12.142Z,15.78
2019-02-24T02:09:40.615Z,13.13
2019-02-24T02:12:09.215Z,15.17
2019-02-24T02:14:37.721Z,14.63
2019-02-24T02:17:06.168Z,14.27
2019-02-24T02:19:34.648Z,14.38
2019-02-24T02:22:03.180Z,13.83
2019-02-24T02:24:31.671Z,14.65
2019-02-24T02:27:00.140Z,13.60
2019-02-24T02:29:28.634Z,14.00
2019-02-24T02:31:57.101Z,13.35
2019-02-24T02:34:25.590Z,13.83
2019-02-24T02:36:54.075Z,13.88
2019-02-24T02:39:22.812Z,13.75
2019-02-24T02:41:51.232Z,14.73
2019-02-24T02:44:19.730Z,13.68
2019-02-24T02:46:48.664Z,14.87
2019-02-24T02:49:17.153Z,13.70
2019-02-24T02:51:45.604Z,13.55
2019-02-24T02:54:14.082Z,13.65
2019-02-24T02:56:42.635Z,13.90
2019-02-24T02:59:11.119Z,14.20
2019-02-24T03:01:39.764Z,13.47
2019-02-24T03:04:08.351Z,14.80
2019-02-24T03:06:41.504Z,13.58
2019-02-24T03:09:10.895Z,13.73
2019-02-24T03:11:39.450Z,14.40
2019-02-24T03:14:07.934Z,13.98
2019-02-24T03:16:36.409Z,13.32
2019-02-24T03:19:04.894Z,13.40
2019-02-24T03:21:33.403Z,14.13
2019-02-24T03:24:01.906Z,13.62
2019-02-24T03:26:30.370Z,13.60
2019-02-24T03:29:04.143Z,14.70
2019-02-24T03:31:29.118Z,14.40
2019-02-24T03:33:57.598Z,14.20
2019-02-24T03:36:26.161Z,14.18
2019-02-24T03:38:54.643Z,13.80
2019-02-24T03:41:23.250Z,13.68
2019-02-24T03:43:51.786Z,13.23
2019-02-24T03:46:20.334Z,13.70
2019-02-24T03:48:48.813Z,12.80
2019-02-24T03:51:17.296Z,13.35
2019-02-24T03:53:46.021Z,12.47
2019-02-24T03:56:14.617Z,13.67
2019-02-24T03:58:43.253Z,12.82
2019-02-24T04:01:11.845Z,12.80
2019-02-24T04:03:40.493Z,12.68
2019-02-24T04:06:09.029Z,13.10
2019-02-24T04:08:37.484Z,12.37
2019-02-24T04:11:05.960Z,12.67
2019-02-24T04:13:36.023Z,13.05
2019-02-24T04:16:04.561Z,12.30
2019-02-24T04:18:33.050Z,13.60
2019-02-24T04:21:02.554Z,12.70
2019-02-24T04:23:31.075Z,12.53
2019-02-24T04:25:59.641Z,12.30
2019-02-24T04:28:28.232Z,13.05
2019-02-24T04:30:56.782Z,13.00
2019-02-24T04:33:25.265Z,12.05
2019-02-24T04:35:53.739Z,12.07
2019-02-24T04:38:22.226Z,12.37
2019-02-24T04:40:50.713Z,11.43
2019-02-24T04:43:19.181Z,12.10
2019-02-24T04:45:47.899Z,11.90
2019-02-24T04:48:16.386Z,11.90
2019-02-24T04:50:44.930Z,12.47
2019-02-24T04:53:13.412Z,11.93
2019-02-24T04:55:41.907Z,11.95
2019-02-24T04:58:10.619Z,11.90
2019-02-24T05:00:39.118Z,12.80
2019-02-24T05:03:07.573Z,11.43
2019-02-24T05:05:36.031Z,12.60
2019-02-24T05:08:04.512Z,12.50
2019-02-24T05:10:32.981Z,12.10
2019-02-24T05:13:01.465Z,12.98
2019-02-24T05:15:29.958Z,12.68
2019-02-24T05:17:58.428Z,12.07
2019-02-24T05:20:26.919Z,12.15
2019-02-24T05:22:55.386Z,12.98
2019-02-24T05:25:23.870Z,12.13
2019-02-24T05:27:52.325Z,12.73
2019-02-24T05:30:20.867Z,12.00
2019-02-24T05:32:49.422Z,13.08
2019-02-24T05:35:17.892Z,12.07
2019-02-24T05:37:46.399Z,12.85
2019-02-24T05:40:14.932Z,12.58
2019-02-24T05:42:43.449Z,12.95
2019-02-24T05:45:12.088Z,12.28
2019-02-24T05:47:40.613Z,12.95
2019-02-24T05:50:09.251Z,12.60
2019-02-24T05:52:37.733Z,11.70
2019-02-24T05:55:06.979Z,12.70
2019-02-24T05:57:35.496Z,12.18
2019-02-24T06:00:04.492Z,12.35
2019-02-24T06:02:32.955Z,12.55
2019-02-24T06:05:01.523Z,13.03
2019-02-24T06:07:29.989Z,11.77
2019-02-24T06:09:58.483Z,12.68
2019-02-24T06:12:26.954Z,13.70
2019-02-24T06:14:55.433Z,12.23
2019-02-24T06:17:24.055Z,12.63
2019-02-24T06:19:52.530Z,12.87
2019-02-24T06:22:21.017Z,12.68
2019-02-24T06:24:49.467Z,12.82
2019-02-24T06:27:17.998Z,13.23
2019-02-24T06:29:46.627Z,13.58
2019-02-24T06:32:15.088Z,12.35
2019-02-24T06:34:43.589Z,13.68
2019-02-24T06:37:12.067Z,12.70
2019-02-24T06:39:40.684Z,12.58
2019-02-24T06:42:09.213Z,12.60
2019-02-24T06:44:37.758Z,12.85
2019-02-24T06:47:06.222Z,12.25
2019-02-24T06:49:34.712Z,12.60
2019-02-24T06:52:03.172Z,13.00
2019-02-24T06:54:31.637Z,13.30
2019-02-24T06:57:00.131Z,13.18
2019-02-24T06:59:28.677Z,13.00
2019-02-24T07:01:57.321Z,13.58
2019-02-24T07:04:25.791Z,12.82
2019-02-24T07:06:54.255Z,13.22
2019-02-24T07:09:22.734Z,14.63
2019-02-24T07:11:51.426Z,13.90
2019-02-24T07:14:20.003Z,14.15
2019-02-24T07:16:48.525Z,13.78
2019-02-24T07:19:16.986Z,14.30
2019-02-24T07:21:45.479Z,13.62
2019-02-24T07:24:13.950Z,14.47
2019-02-24T07:26:42.510Z,13.90
2019-02-24T07:29:11.093Z,12.87
2019-02-24T07:31:39.613Z,12.93
2019-02-24T07:34:08.091Z,12.03
2019-02-24T07:36:36.540Z,13.10
2019-02-24T07:39:05.462Z,13.03
2019-02-24T07:41:33.915Z,12.73
2019-02-24T07:44:02.769Z,12.13
2019-02-24T07:46:31.341Z,12.00
2019-02-24T07:48:59.867Z,13.53
2019-02-24T07:51:28.346Z,12.95
2019-02-24T07:53:56.935Z,12.68
2019-02-24T07:56:25.570Z,12.60
2019-02-24T07:58:54.096Z,12.18
2019-02-24T08:01:22.572Z,11.08
2019-02-24T08:03:51.079Z,11.20
2019-02-24T08:06:19.610Z,11.73
2019-02-24T08:08:48.246Z,10.73
2019-02-24T08:11:16.701Z,10.97
2019-02-24T08:13:45.458Z,11.40
2019-02-24T08:16:13.968Z,11.95
2019-02-24T08:18:49.223Z,13.40
2019-02-24T08:21:12.752Z,13.30
2019-02-24T08:23:41.189Z,13.75
2019-02-24T08:26:09.721Z,12.15
2019-02-24T08:28:38.333Z,12.50
2019-02-24T08:31:06.861Z,12.47
2019-02-24T08:33:35.424Z,11.30
2019-02-24T08:36:03.985Z,10.70
2019-02-24T08:38:34.590Z,10.10
2019-02-24T08:41:03.599Z,10.58
2019-02-24T08:43:32.096Z,9.83
2019-02-24T08:46:00.563Z,11.10
2019-02-24T08:48:29.060Z,10.55
2019-02-24T08:50:57.514Z,11.20
2019-02-24T08:53:26.008Z,11.50
2019-02-24T08:55:54.534Z,11.83
2019-02-24T08:58:23.017Z,11.40
2019-02-24T09:00:51.529Z,11.28
2019-02-24T09:03:20.344Z,11.03
2019-02-24T09:05:48.859Z,10.70
2019-02-24T09:08:17.570Z,10.85
2019-02-24T09:10:46.141Z,10.60
2019-02-24T09:13:14.616Z,10.15
2019-02-24T09:15:43.076Z,9.63
2019-02-24T09:18:11.622Z,8.83
2019-02-24T09:20:40.276Z,10.68
2019-02-24T09:23:08.843Z,10.00
2019-02-24T09:25:37.373Z,10.53
2019-02-24T09:28:05.980Z,9.28
2019-02-24T09:30:34.538Z,9.75
2019-02-24T09:33:03.126Z,9.60
2019-02-24T09:35:31.603Z,10.65
2019-02-24T09:38:00.088Z,10.50
2019-02-24T09:40:28.726Z,9.80
2019-02-24T09:42:57.481Z,11.15
2019-02-24T09:45:26.109Z,9.40
2019-02-24T09:47:54.632Z,11.48
2019-02-24T09:50:23.191Z,10.08
2019-02-24T09:52:51.645Z,10.95
2019-02-24T09:55:20.133Z,10.65
2019-02-24T09:57:48.608Z,11.10
2019-02-24T10:00:17.638Z,10.25
2019-02-24T10:02:46.167Z,10.20
2019-02-24T10:05:14.635Z,9.13
2019-02-24T10:07:43.130Z,8.75
2019-02-24T10:10:12.937Z,8.80
2019-02-24T10:12:41.580Z,8.48
2019-02-24T10:15:14.566Z,8.97
2019-02-24T10:17:43.216Z,8.10
2019-02-24T10:20:12.904Z,7.85
2019-02-24T10:22:41.367Z,8.28
2019-02-24T10:25:10.493Z,8.35
2019-02-24T10:27:39.119Z,9.13
2019-02-24T10:30:13.655Z,8.23
2019-02-24T10:35:10.405Z,7.65
2019-02-24T10:37:38.910Z,6.78
2019-02-24T10:40:12.394Z,8.35
2019-02-24T10:42:41.175Z,8.07
2019-02-24T10:45:15.737Z,7.60
2019-02-24T10:47:44.422Z,6.92
2019-02-24T10:50:15.139Z,6.15
2019-02-24T10:52:43.701Z,7.55
2019-02-24T10:55:12.484Z,7.30
2019-02-24T10:57:41.120Z,7.45
2019-02-24T11:00:14.593Z,7.93
2019-02-24T11:02:43.212Z,7.83
2019-02-24T11:05:11.945Z,7.77
2019-02-24T11:07:40.429Z,8.28
2019-02-24T11:10:10.069Z,8.00
2019-02-24T11:12:38.670Z,7.55
2019-02-24T11:15:09.479Z,8.10
2019-02-24T11:17:38.249Z,7.03
2019-02-24T11:20:09.884Z,7.28
2019-02-24T11:22:38.473Z,6.90
2019-02-24T11:25:08.584Z,6.03
2019-02-24T11:27:37.181Z,5.95
2019-02-24T11:30:08.623Z,6.10
2019-02-24T11:32:37.168Z,6.87
2019-02-24T11:35:10.464Z,7.10
2019-02-24T11:37:39.112Z,6.90
2019-02-24T11:40:10.633Z,6.80
2019-02-24T11:42:39.089Z,7.50
2019-02-24T11:45:09.222Z,7.08
2019-02-24T11:47:37.852Z,6.45
2019-02-24T11:50:09.092Z,7.22
2019-02-24T11:52:37.624Z,5.58
2019-02-24T11:55:07.623Z,5.85
2019-02-24T11:57:36.171Z,6.22
2019-02-24T12:00:06.982Z,6.20
2019-02-24T12:02:35.626Z,5.90
2019-02-24T12:05:05.745Z,6.00
2019-02-24T12:07:34.236Z,6.35
2019-02-24T12:10:02.786Z,5.50
2019-02-24T12:12:31.258Z,6.45
2019-02-24T12:14:59.813Z,6.20
2019-02-24T12:17:28.426Z,5.72
2019-02-24T12:19:56.979Z,5.43
2019-02-24T12:22:25.538Z,5.78
2019-02-24T12:24:54.088Z,5.80
2019-02-24T12:27:22.564Z,5.15
2019-02-24T12:29:51.151Z,6.10
2019-02-24T12:32:19.597Z,5.60
2019-02-24T12:34:48.108Z,5.92
2019-02-24T12:37:17.491Z,6.30
2019-02-24T12:39:46.264Z,5.25
2019-02-24T12:42:14.741Z,5.30
2019-02-24T12:44:43.283Z,5.97
2019-02-24T12:47:11.727Z,6.03
2019-02-24T12:49:40.291Z,5.28
2019-02-24T12:52:08.902Z,5.20
2019-02-24T12:54:37.461Z,5.40
2019-02-24T12:57:05.985Z,5.03
2019-02-24T12:59:34.557Z,5.33
2019-02-24T13:02:05.743Z,4.40
2019-02-24T13:04:33.429Z,4.97
2019-02-24T13:07:01.948Z,4.72
2019-02-24T13:09:30.443Z,4.78
2019-02-24T13:11:59.030Z,4.35
2019-02-24T13:14:27.756Z,4.72
2019-02-24T13:16:56.824Z,4.57
2019-02-24T13:19:25.310Z,4.50
2019-02-24T13:21:53.957Z,5.03
2019-02-24T13:24:22.619Z,4.22
2019-02-24T13:26:51.299Z,4.92
2019-02-24T13:29:20.051Z,4.17
2019-02-24T13:31:48.661Z,4.12
2019-02-24T13:34:17.204Z,4.75
2019-02-24T13:36:45.663Z,4.08
2019-02-24T13:39:14.264Z,4.20
2019-02-24T13:41:43.032Z,4.72
2019-02-24T13:44:11.632Z,4.93
2019-02-24T13:46:40.138Z,4.50
2019-02-24T13:49:08.683Z,4.64
2019-02-24T13:51:37.185Z,4.45
2019-02-24T13:54:05.781Z,5.80
2019-02-24T13:56:34.223Z,4.85
2019-02-24T13:59:02.782Z,5.00
2019-02-24T14:01:31.249Z,4.78
2019-02-24T14:03:59.790Z,4.53
2019-02-24T14:06:28.347Z,4.35
2019-02-24T14:08:56.866Z,5.50
2019-02-24T14:11:25.431Z,4.62
2019-02-24T14:13:53.997Z,5.80
2019-02-24T14:16:22.445Z,5.78
2019-02-24T14:18:50.925Z,5.80
2019-02-24T14:21:19.644Z,6.00
2019-02-24T14:23:48.158Z,5.43
2019-02-24T14:26:16.736Z,5.25
2019-02-24T14:28:45.263Z,4.90
2019-02-24T14:31:13.713Z,5.17
2019-02-24T14:33:42.247Z,5.10
2019-02-24T14:36:10.778Z,4.93
2019-02-24T14:38:39.396Z,5.00
2019-02-24T14:41:08.959Z,5.15
2019-02-24T14:43:37.709Z,4.65
2019-02-24T14:46:06.244Z,4.78
2019-02-24T14:48:34.700Z,4.53
2019-02-24T14:51:04.353Z,4.46
2019-02-24T14:53:34.136Z,5.10
2019-02-24T14:56:02.689Z,4.95
2019-02-24T14:58:31.159Z,5.03
2019-02-24T15:01:00.735Z,4.42
2019-02-24T15:03:29.379Z,4.13
2019-02-24T15:05:57.972Z,4.08
2019-02-24T15:08:26.789Z,4.10
2019-02-24T15:10:55.403Z,4.25
2019-02-24T15:13:24.160Z,4.17
2019-02-24T15:15:52.682Z,4.70
2019-02-24T15:18:21.180Z,4.78
2019-02-24T15:20:49.769Z,4.83
2019-02-24T15:23:18.516Z,4.27
2019-02-24T15:25:47.153Z,5.45
2019-02-24T15:28:15.663Z,4.83
2019-02-24T15:30:44.272Z,4.53
2019-02-24T15:33:12.862Z,4.50
2019-02-24T15:35:41.432Z,4.58
2019-02-24T15:38:09.990Z,5.60
2019-02-24T15:40:38.586Z,4.37
2019-02-24T15:43:07.159Z,4.83
2019-02-24T15:45:35.791Z,4.47
2019-02-24T15:48:04.392Z,3.90
2019-02-24T15:50:32.941Z,4.65
2019-02-24T15:53:01.493Z,4.35
2019-02-24T15:55:30.027Z,4.58
2019-02-24T15:57:58.697Z,4.10
2019-02-24T16:00:27.296Z,5.47
2019-02-24T16:03:01.531Z,4.97
2019-02-24T16:05:26.417Z,4.85
2019-02-24T16:07:54.911Z,4.72
2019-02-24T16:10:23.727Z,4.83
2019-02-24T16:12:52.337Z,4.85
2019-02-24T16:15:23.477Z,4.63
2019-02-24T16:17:52.068Z,4.45
2019-02-24T16:20:23.183Z,4.40
2019-02-24T16:22:51.767Z,5.00
2019-02-24T16:25:20.488Z,5.30
2019-02-24T16:27:49.037Z,5.83
2019-02-24T16:30:17.932Z,5.87
2019-02-24T16:32:46.508Z,5.67
2019-02-24T16:35:16.607Z,5.63
2019-02-24T16:37:45.210Z,5.30
2019-02-24T16:40:19.602Z,5.90
2019-02-24T16:42:48.123Z,5.80
2019-02-24T16:45:17.099Z,5.20
2019-02-24T16:47:45.768Z,6.03
2019-02-24T16:50:18.542Z,5.50
2019-02-24T16:52:47.088Z,6.55
2019-02-24T16:55:16.481Z,5.80
2019-02-24T16:57:45.096Z,6.40
2019-02-24T17:00:27.875Z,7.10
2019-02-24T17:02:57.956Z,6.78
2019-02-24T17:05:26.863Z,6.62
2019-02-24T17:07:55.317Z,5.90
2019-02-24T17:10:28.363Z,6.65
2019-02-24T17:12:57.421Z,6.87
2019-02-24T17:15:26.189Z,8.53
2019-02-24T17:17:54.846Z,6.95
2019-02-24T17:20:24.840Z,7.00
2019-02-24T17:22:53.363Z,6.93
2019-02-24T17:25:21.983Z,6.80
2019-02-24T17:27:50.514Z,6.60
2019-02-24T17:30:19.145Z,6.28
2019-02-24T17:32:47.692Z,6.28
2019-02-24T17:35:16.214Z,6.40
2019-02-24T17:37:44.847Z,6.33
2019-02-24T17:40:19.630Z,5.83
2019-02-24T17:42:48.441Z,6.40
2019-02-24T17:45:17.056Z,6.70
2019-02-24T17:47:45.683Z,6.17
2019-02-24T17:50:15.677Z,6.47
2019-02-24T17:52:44.367Z,6.25
2019-02-24T17:55:14.479Z,6.33
2019-02-24T17:57:43.096Z,11.10
2019-02-24T18:00:29.998Z,9.15
2019-02-24T18:02:58.661Z,8.30
2019-02-24T18:05:27.277Z,7.72
2019-02-24T18:07:56.045Z,7.37
2019-02-24T18:10:24.673Z,7.87
2019-02-24T18:12:53.202Z,7.35
2019-02-24T18:15:21.848Z,7.97
2019-02-24T18:17:50.325Z,8.85
2019-02-24T18:20:20.660Z,7.95
2019-02-24T18:22:49.403Z,7.60
2019-02-24T18:25:17.893Z,7.70
2019-02-24T18:27:46.440Z,7.85
2019-02-24T18:30:31.066Z,9.03
2019-02-24T18:32:59.867Z,8.10
2019-02-24T18:35:28.496Z,8.58
2019-02-24T18:37:57.266Z,8.10
2019-02-24T18:40:25.800Z,7.35
2019-02-24T18:43:00.139Z,7.15
2019-02-24T18:45:24.979Z,9.13
2019-02-24T18:47:53.494Z,10.25
2019-02-24T18:50:22.330Z,9.38
2019-02-24T18:52:50.804Z,8.73
2019-02-24T18:55:19.595Z,9.78
2019-02-24T18:57:48.030Z,8.03
2019-02-24T19:00:18.590Z,8.18
2019-02-24T19:02:47.170Z,8.83
2019-02-24T19:05:15.764Z,10.03
2019-02-24T19:07:44.321Z,10.13
2019-02-24T19:10:17.879Z,9.73
2019-02-24T19:12:46.526Z,9.97
2019-02-24T19:15:23.064Z,9.17
2019-02-24T19:17:51.769Z,9.93
2019-02-24T19:20:21.708Z,10.78
2019-02-24T19:22:50.240Z,8.88
2019-02-24T19:25:18.796Z,9.50
2019-02-24T19:27:47.245Z,9.53
2019-02-24T19:30:17.402Z,10.88
2019-02-24T19:32:46.202Z,10.23
2019-02-24T19:35:16.105Z,11.10
2019-02-24T19:37:45.049Z,10.88
2019-02-24T19:40:18.266Z,9.63
2019-02-24T19:42:46.800Z,10.60
2019-02-24T19:45:17.232Z,11.28
2019-02-24T19:47:45.839Z,13.13
2019-02-24T19:50:16.760Z,13.17
2019-02-24T19:52:45.557Z,14.15
2019-02-24T19:55:15.255Z,12.53
2019-02-24T19:57:44.204Z,18.23
2019-02-24T20:00:18.294Z,17.50
2019-02-24T20:02:46.886Z,19.17
2019-02-24T20:05:15.520Z,14.50
2019-02-24T20:07:44.098Z,12.58
2019-02-24T20:10:30.326Z,15.43
2019-02-24T20:12:58.793Z,15.13
2019-02-24T20:15:27.330Z,17.23
2019-02-24T20:17:55.910Z,17.70
2019-02-24T20:20:24.440Z,16.45
2019-02-24T20:22:53.135Z,15.85
2019-02-24T20:25:23.044Z,12.30
2019-02-24T20:27:51.626Z,11.60
2019-02-24T20:30:31.942Z,11.43
2019-02-24T20:33:00.775Z,10.72
2019-02-24T20:35:29.453Z,11.55
2019-02-24T20:37:57.991Z,14.30
2019-02-24T20:40:26.581Z,13.62
2019-02-24T20:42:55.197Z,13.28
2019-02-24T20:45:24.637Z,13.65
2019-02-24T20:47:53.426Z,13.28
2019-02-24T20:50:27.191Z,14.43
2019-02-24T20:52:56.045Z,13.55
2019-02-24T20:55:24.514Z,12.50
2019-02-24T20:57:53.109Z,12.97
2019-02-24T21:00:30.242Z,13.40
2019-02-24T21:02:58.851Z,14.35
2019-02-24T21:05:27.464Z,15.90
2019-02-24T21:07:56.248Z,15.55
2019-02-24T21:10:24.769Z,14.98
2019-02-24T21:12:53.220Z,16.10
2019-02-24T21:15:21.802Z,15.78
2019-02-24T21:17:50.313Z,15.72
2019-02-24T21:20:26.949Z,16.05
2019-02-24T21:22:55.903Z,15.80
2019-02-24T21:25:24.457Z,15.03
2019-02-24T21:27:53.038Z,12.00
2019-02-24T21:30:22.134Z,11.63
2019-02-24T21:32:50.791Z,11.63
2019-02-24T21:35:19.377Z,12.15
2019-02-24T21:37:48.217Z,12.28
2019-02-24T21:40:18.793Z,9.90
2019-02-24T21:42:47.618Z,9.63
2019-02-24T21:45:21.678Z,10.38
2019-02-24T21:50:18.347Z,10.43
2019-02-24T21:52:47.143Z,9.35
2019-02-24T21:55:15.984Z,9.23
2019-02-24T21:57:44.700Z,8.75
2019-02-24T22:00:21.628Z,8.40
2019-02-24T22:02:50.215Z,8.90
2019-02-24T22:05:18.820Z,8.50
2019-02-24T22:07:47.538Z,8.43
2019-02-24T22:10:16.742Z,7.90
2019-02-24T22:12:45.505Z,7.67
2019-02-24T22:15:21.931Z,7.70
2019-02-24T22:17:50.429Z,8.53
2019-02-24T22:20:19.019Z,8.50
2019-02-24T22:22:47.881Z,9.38
2019-02-24T22:25:16.679Z,8.75
2019-02-24T22:27:45.284Z,9.20
2019-02-24T22:30:16.260Z,9.73
2019-02-24T22:32:44.771Z,9.03
2019-02-24T22:35:13.367Z,8.85
2019-02-24T22:37:42.048Z,8.50
2019-02-24T22:40:16.603Z,9.58
2019-02-24T22:42:46.526Z,8.85
2019-02-24T22:45:20.043Z,8.80
2019-02-24T22:47:48.840Z,9.87
2019-02-24T22:50:17.630Z,8.57
2019-02-24T22:52:46.826Z,10.82
2019-02-24T22:55:16.540Z,9.67
2019-02-24T22:57:45.128Z,9.38
2019-02-24T23:00:54.634Z,8.68
2019-02-24T23:03:31.750Z,9.05
2019-02-24T23:06:00.643Z,8.88
2019-02-24T23:08:29.258Z,8.93
2019-02-24T23:10:57.850Z,8.90
2019-02-24T23:13:26.687Z,8.40
2019-02-24T23:15:55.200Z,9.50
2019-02-24T23:18:23.753Z,10.65
2019-02-24T23:20:52.403Z,10.15
2019-02-24T23:23:20.875Z,9.63
2019-02-24T23:25:49.513Z,10.28
2019-02-24T23:28:18.053Z,9.30
2019-02-24T23:30:46.505Z,9.30
2019-02-24T23:33:14.977Z,9.77
2019-02-24T23:35:43.503Z,11.03
2019-02-24T23:38:12.148Z,10.68
2019-02-24T23:40:40.750Z,9.98
2019-02-24T23:43:09.308Z,9.38
2019-02-24T23:45:38.228Z,10.00
2019-02-24T23:48:06.854Z,8.73
2019-02-24T23:50:35.378Z,8.80
2019-02-24T23:53:04.308Z,10.03
2019-02-24T23:55:32.794Z,9.53
2019-02-24T23:58:01.861Z,10.60
